createdAt,value
2022-12-12T00:01:31.546Z,37.17
2022-12-12T00:03:59.417Z,33.40
2022-12-12T00:06:30.737Z,33.70
2022-12-12T00:09:40.521Z,36.05
2022-12-12T00:16:33.053Z,34.22
2022-12-12T00:19:01.118Z,36.95
2022-12-12T00:21:30.701Z,38.92
2022-12-12T00:24:01.150Z,41.35
2022-12-12T00:26:32.138Z,37.33
2022-12-12T00:29:02.979Z,37.47
2022-12-12T00:31:30.598Z,37.75
2022-12-12T00:34:01.946Z,36.92
2022-12-12T00:36:36.283Z,34.97
2022-12-12T00:39:07.073Z,35.42
2022-12-12T00:41:38.265Z,37.20
2022-12-12T00:44:19.770Z,33.22
2022-12-12T00:46:52.733Z,29.87
2022-12-12T00:51:47.546Z,32.38
2022-12-12T00:54:14.629Z,30.02
2022-12-12T00:56:41.830Z,33.13
2022-12-12T00:59:09.175Z,34.92
2022-12-12T01:01:36.715Z,35.83
2022-12-12T01:04:09.089Z,35.40
2022-12-12T01:06:39.430Z,36.58
2022-12-12T01:09:06.351Z,33.72
2022-12-12T01:11:35.430Z,31.85
2022-12-12T01:14:03.491Z,39.03
2022-12-12T01:16:30.980Z,36.42
2022-12-12T01:19:00.030Z,36.17
2022-12-12T01:21:37.910Z,33.40
2022-12-12T01:24:33.805Z,36.75
2022-12-12T01:27:02.323Z,36.72
2022-12-12T01:29:29.756Z,33.35
2022-12-12T01:31:56.815Z,33.70
2022-12-12T01:34:23.646Z,33.58
2022-12-12T01:36:52.083Z,35.85
2022-12-12T01:39:20.014Z,39.35
2022-12-12T01:41:46.944Z,38.30
2022-12-12T01:44:50.286Z,38.72
2022-12-12T01:51:43.616Z,33.15
2022-12-12T01:54:20.065Z,36.83
2022-12-12T01:56:50.686Z,33.88
2022-12-12T01:59:24.093Z,36.92
2022-12-12T02:01:52.034Z,38.53
2022-12-12T02:04:20.915Z,31.67
2022-12-12T02:07:08.516Z,32.17
2022-12-12T02:12:19.176Z,39.13
2022-12-12T02:14:50.609Z,38.47
2022-12-12T02:17:52.224Z,34.40
2022-12-12T02:20:48.972Z,39.72
2022-12-12T02:23:38.201Z,36.53
2022-12-12T02:26:22.323Z,38.05
2022-12-12T02:29:20.719Z,37.55
2022-12-12T02:32:03.732Z,36.72
2022-12-12T02:34:51.702Z,33.88
2022-12-12T02:37:40.655Z,41.20
2022-12-12T02:40:21.473Z,27.35
2022-12-12T02:42:52.186Z,35.72
2022-12-12T02:45:52.104Z,34.05
2022-12-12T02:48:43.058Z,38.67
2022-12-12T02:51:14.065Z,36.00
2022-12-12T02:53:42.234Z,38.55
2022-12-12T02:56:46.272Z,40.00
2022-12-12T02:59:37.090Z,37.25
2022-12-12T03:02:25.821Z,41.55
2022-12-12T03:05:40.905Z,46.75
2022-12-12T03:08:13.214Z,38.70
2022-12-12T03:11:20.631Z,38.63
2022-12-12T03:14:21.778Z,40.35
2022-12-12T03:17:23.511Z,29.63
2022-12-12T03:20:07.738Z,39.28
2022-12-12T03:23:05.284Z,33.40
2022-12-12T03:25:50.335Z,40.22
2022-12-12T03:28:32.333Z,38.90
2022-12-12T03:31:05.700Z,39.15
2022-12-12T03:33:39.959Z,34.20
2022-12-12T03:36:18.346Z,37.03
2022-12-12T03:38:57.484Z,39.40
2022-12-12T03:41:36.096Z,36.70
2022-12-12T03:44:25.398Z,37.08
2022-12-12T03:46:57.259Z,39.67
2022-12-12T03:49:34.791Z,40.22
2022-12-12T03:52:08.464Z,34.80
2022-12-12T03:54:49.279Z,36.45
2022-12-12T03:57:22.539Z,37.85
2022-12-12T04:00:02.067Z,38.15
2022-12-12T04:03:10.721Z,33.55
2022-12-12T04:06:16.669Z,36.45
2022-12-12T04:09:04.277Z,34.58
2022-12-12T04:11:59.288Z,32.95
2022-12-12T04:14:43.885Z,38.80
2022-12-12T04:17:19.330Z,35.40
2022-12-12T04:20:35.535Z,36.03
2022-12-12T04:23:16.572Z,37.47
2022-12-12T04:26:36.021Z,38.75
2022-12-12T04:29:30.139Z,36.03
2022-12-12T04:32:06.191Z,36.63
2022-12-12T04:35:06.876Z,43.38
2022-12-12T04:37:36.790Z,35.72
2022-12-12T04:40:07.777Z,36.78
2022-12-12T04:42:40.998Z,38.67
2022-12-12T04:45:14.404Z,38.22
2022-12-12T04:47:46.667Z,42.92
2022-12-12T04:50:22.748Z,35.30
2022-12-12T04:52:58.287Z,22.95
2022-12-12T04:55:32.827Z,35.38
2022-12-12T04:58:01.657Z,37.10
2022-12-12T05:00:35.155Z,34.88
2022-12-12T05:03:29.126Z,33.83
2022-12-12T05:06:03.464Z,39.28
2022-12-12T05:08:38.767Z,34.15
2022-12-12T05:11:07.342Z,37.88
2022-12-12T05:13:37.145Z,36.10
2022-12-12T05:16:34.369Z,38.30
2022-12-12T05:19:01.976Z,35.20
2022-12-12T05:21:30.169Z,36.90
2022-12-12T05:23:57.178Z,40.00
2022-12-12T05:26:26.923Z,34.50
2022-12-12T05:28:54.411Z,38.85
2022-12-12T05:31:22.000Z,37.42
2022-12-12T05:33:49.762Z,37.35
2022-12-12T05:36:19.696Z,38.83
2022-12-12T05:39:01.968Z,38.05
2022-12-12T05:41:28.904Z,36.95
2022-12-12T05:43:56.873Z,35.42
2022-12-12T05:46:24.954Z,33.08
2022-12-12T05:48:52.799Z,39.90
2022-12-12T05:51:22.112Z,34.80
2022-12-12T05:53:50.085Z,36.88
2022-12-12T05:59:17.335Z,39.35
2022-12-12T06:04:33.883Z,36.60
2022-12-12T06:07:04.976Z,39.05
2022-12-12T06:09:32.461Z,38.47
2022-12-12T06:12:00.036Z,34.13
2022-12-12T06:14:27.174Z,40.90
2022-12-12T06:16:55.253Z,37.72
2022-12-12T06:19:22.613Z,41.40
2022-12-12T06:21:59.294Z,43.30
2022-12-12T06:24:28.816Z,39.03
2022-12-12T06:26:57.079Z,41.10
2022-12-12T06:29:32.711Z,44.85
2022-12-12T06:32:02.745Z,45.45
2022-12-12T06:34:33.646Z,42.42
2022-12-12T06:37:01.880Z,38.78
2022-12-12T06:39:30.748Z,40.00
2022-12-12T06:41:58.685Z,40.78
2022-12-12T06:44:26.644Z,39.65
2022-12-12T06:47:46.808Z,50.22
2022-12-12T06:50:15.819Z,45.35
2022-12-12T06:52:45.161Z,42.10
2022-12-12T06:56:04.607Z,45.97
2022-12-12T06:58:33.241Z,44.15
2022-12-12T07:01:02.566Z,43.03
2022-12-12T07:03:33.893Z,42.30
2022-12-12T07:06:02.162Z,41.80
2022-12-12T07:17:04.544Z,39.17
2022-12-12T07:23:55.921Z,46.13
2022-12-12T07:26:27.835Z,44.17
2022-12-12T07:28:57.300Z,46.80
2022-12-12T07:31:26.599Z,47.55
2022-12-12T07:33:55.022Z,47.30
2022-12-12T07:36:23.474Z,42.60
2022-12-12T07:38:50.981Z,45.28
2022-12-12T07:41:20.695Z,45.55
2022-12-12T07:43:51.149Z,45.15
2022-12-12T07:46:25.343Z,42.50
2022-12-12T07:50:00.396Z,41.65
2022-12-12T07:59:18.038Z,45.55
2022-12-12T08:02:11.606Z,42.78
2022-12-12T08:04:43.254Z,52.53
2022-12-12T08:07:13.006Z,44.35
2022-12-12T08:09:40.309Z,37.53
2022-12-12T08:12:11.303Z,38.25
2022-12-12T08:14:38.549Z,41.63
2022-12-12T08:17:08.672Z,35.78
2022-12-12T08:19:43.375Z,41.63
2022-12-12T08:22:30.685Z,34.92
2022-12-12T08:27:56.324Z,29.63
2022-12-12T08:33:20.168Z,38.10
2022-12-12T08:35:47.853Z,41.25
2022-12-12T08:38:28.753Z,35.33
2022-12-12T08:41:05.459Z,44.30
2022-12-12T08:43:36.080Z,42.95
2022-12-12T08:46:12.416Z,39.28
2022-12-12T08:48:45.242Z,39.78
2022-12-12T08:51:13.063Z,36.40
2022-12-12T08:53:40.193Z,39.67
2022-12-12T08:56:07.758Z,38.03
2022-12-12T08:58:39.976Z,33.55
2022-12-12T09:01:16.432Z,41.45
2022-12-12T09:03:47.256Z,31.95
2022-12-12T09:06:15.860Z,41.30
2022-12-12T09:11:29.262Z,33.85
2022-12-12T09:13:58.889Z,45.53
2022-12-12T09:19:09.663Z,36.05
2022-12-12T09:21:36.802Z,33.13
2022-12-12T09:24:13.298Z,35.35
2022-12-12T09:26:44.795Z,33.20
2022-12-12T09:34:36.894Z,33.28
2022-12-12T09:37:11.453Z,28.33
2022-12-12T09:39:46.582Z,30.67
2022-12-12T09:42:30.949Z,30.95
2022-12-12T09:45:08.082Z,31.65
2022-12-12T09:47:46.247Z,23.95
2022-12-12T09:50:36.063Z,32.63
2022-12-12T09:53:23.936Z,27.15
2022-12-12T09:56:22.765Z,27.83
2022-12-12T09:59:06.192Z,26.40
2022-12-12T10:01:39.492Z,29.83
2022-12-12T10:04:25.684Z,27.30
2022-12-12T10:07:04.826Z,26.17
2022-12-12T10:10:01.970Z,26.67
2022-12-12T10:12:36.627Z,22.77
2022-12-12T10:17:49.712Z,27.17
2022-12-12T10:20:29.481Z,22.38
2022-12-12T10:23:20.373Z,24.20
2022-12-12T10:26:28.200Z,25.92
2022-12-12T10:29:16.481Z,22.77
2022-12-12T10:31:52.644Z,25.65
2022-12-12T10:34:31.753Z,22.42
2022-12-12T10:37:21.701Z,24.92
2022-12-12T10:40:12.473Z,22.60
2022-12-12T10:42:46.408Z,22.02
2022-12-12T10:45:37.114Z,23.30
2022-12-12T10:48:05.761Z,21.52
2022-12-12T10:50:38.621Z,19.70
2022-12-12T10:53:09.423Z,22.15
2022-12-12T10:55:46.593Z,22.98
2022-12-12T10:58:13.741Z,27.23
2022-12-12T11:02:07.865Z,20.63
2022-12-12T11:04:25.783Z,19.77
2022-12-12T11:06:55.060Z,20.92
2022-12-12T11:09:24.888Z,20.05
2022-12-12T11:12:10.333Z,19.73
2022-12-12T11:14:52.593Z,18.45
2022-12-12T11:17:27.758Z,18.95
2022-12-12T11:19:57.690Z,16.85
2022-12-12T11:22:26.571Z,20.67
2022-12-12T11:24:55.395Z,25.63
2022-12-12T11:27:45.210Z,18.10
2022-12-12T11:30:42.954Z,17.90
2022-12-12T11:33:22.264Z,22.38
2022-12-12T11:35:55.882Z,22.52
2022-12-12T11:38:54.976Z,21.35
2022-12-12T11:41:22.558Z,18.73
2022-12-12T11:44:00.602Z,18.02
2022-12-12T11:46:32.205Z,19.50
2022-12-12T11:49:09.167Z,21.02
2022-12-12T11:51:43.331Z,19.35
2022-12-12T11:54:33.577Z,17.50
2022-12-12T11:57:11.340Z,14.55
2022-12-12T12:00:09.441Z,18.00
2022-12-12T12:03:10.179Z,15.82
2022-12-12T12:06:09.281Z,16.48
2022-12-12T12:09:17.869Z,17.05
2022-12-12T12:12:11.694Z,18.70
2022-12-12T12:14:57.486Z,15.07
2022-12-12T12:17:32.941Z,19.58
2022-12-12T12:20:20.444Z,16.20
2022-12-12T12:22:54.678Z,16.65
2022-12-12T12:25:25.603Z,16.42
2022-12-12T12:28:27.069Z,17.92
2022-12-12T12:31:19.817Z,16.92
2022-12-12T12:33:56.266Z,18.42
2022-12-12T12:36:29.451Z,18.60
2022-12-12T12:39:53.805Z,16.45
2022-12-12T12:42:23.867Z,17.67
2022-12-12T12:45:21.425Z,18.70
2022-12-12T12:48:25.692Z,21.38
2022-12-12T12:51:04.788Z,17.70
2022-12-12T12:53:39.273Z,17.15
2022-12-12T12:56:27.931Z,24.73
2022-12-12T12:59:03.013Z,19.17
2022-12-12T13:01:41.299Z,19.23
2022-12-12T13:04:18.172Z,20.85
2022-12-12T13:07:08.185Z,21.60
2022-12-12T13:09:52.129Z,20.40
2022-12-12T13:12:43.466Z,16.95
2022-12-12T13:15:26.166Z,22.45
2022-12-12T13:18:04.730Z,21.83
2022-12-12T13:20:42.910Z,20.73
2022-12-12T13:23:47.164Z,23.30
2022-12-12T13:26:19.610Z,22.27
2022-12-12T13:32:36.939Z,25.25
2022-12-12T13:35:13.339Z,29.02
2022-12-12T13:37:53.364Z,22.27
2022-12-12T13:40:32.390Z,22.90
2022-12-12T13:43:27.465Z,24.58
2022-12-12T13:45:54.890Z,23.77
2022-12-12T13:48:30.765Z,27.77
2022-12-12T13:51:32.701Z,23.13
2022-12-12T13:54:14.429Z,20.75
2022-12-12T13:57:12.842Z,19.57
2022-12-12T14:00:00.172Z,26.75
2022-12-12T14:02:42.597Z,24.17
2022-12-12T14:05:44.517Z,27.55
2022-12-12T14:08:19.051Z,27.70
2022-12-12T14:10:46.497Z,29.95
2022-12-12T14:13:26.116Z,26.38
2022-12-12T14:16:02.374Z,29.95
2022-12-12T14:19:04.558Z,27.77
2022-12-12T14:21:51.372Z,30.05
2022-12-12T14:24:34.120Z,25.48
2022-12-12T14:27:03.130Z,31.42
2022-12-12T14:29:45.267Z,25.33
2022-12-12T14:33:17.206Z,25.52
2022-12-12T14:36:52.192Z,27.90
2022-12-12T14:39:26.604Z,25.65
2022-12-12T14:42:08.570Z,25.38
2022-12-12T14:44:50.702Z,22.95
2022-12-12T14:47:20.004Z,25.75
2022-12-12T14:50:11.639Z,26.73
2022-12-12T14:52:42.691Z,27.13
2022-12-12T14:55:16.535Z,23.70
2022-12-12T14:57:43.815Z,22.05
2022-12-12T15:00:28.911Z,27.33
2022-12-12T15:03:02.194Z,24.95
2022-12-12T15:05:30.738Z,22.33
2022-12-12T15:08:05.279Z,24.10
2022-12-12T15:10:51.246Z,21.10
2022-12-12T15:14:10.431Z,28.20
2022-12-12T15:17:09.484Z,25.17
2022-12-12T15:20:43.033Z,27.40
2022-12-12T15:23:20.320Z,25.30
2022-12-12T15:25:57.269Z,25.38
2022-12-12T15:28:25.934Z,27.38
2022-12-12T15:30:53.829Z,25.70
2022-12-12T15:33:26.674Z,35.20
2022-12-12T15:36:07.770Z,33.00
2022-12-12T15:39:16.921Z,33.97
2022-12-12T15:41:45.931Z,24.83
2022-12-12T15:44:21.212Z,26.85
2022-12-12T15:46:51.868Z,28.40
2022-12-12T15:49:50.757Z,30.58
2022-12-12T15:52:42.689Z,36.70
2022-12-12T15:55:22.435Z,33.87
2022-12-12T15:57:54.441Z,28.77
2022-12-12T16:00:36.750Z,34.33
2022-12-12T16:03:25.234Z,32.45
2022-12-12T16:06:30.650Z,32.55
2022-12-12T16:09:18.404Z,32.53
2022-12-12T16:11:55.375Z,29.75
2022-12-12T16:14:50.502Z,27.90
2022-12-12T16:17:20.262Z,30.77
2022-12-12T16:20:03.580Z,37.10
2022-12-12T16:22:49.009Z,34.38
2022-12-12T16:25:45.432Z,38.65
2022-12-12T16:28:33.259Z,33.03
2022-12-12T16:31:26.476Z,36.25
2022-12-12T16:34:03.660Z,35.45
2022-12-12T16:36:58.100Z,35.20
2022-12-12T16:39:25.149Z,34.63
2022-12-12T16:42:07.369Z,33.47
2022-12-12T16:44:37.486Z,37.00
2022-12-12T16:47:22.069Z,36.70
2022-12-12T16:49:55.792Z,43.00
2022-12-12T16:52:49.625Z,33.90
2022-12-12T16:55:35.322Z,37.00
2022-12-12T16:58:05.964Z,37.95
2022-12-12T17:00:40.572Z,38.47
2022-12-12T17:03:16.264Z,39.40
2022-12-12T17:05:47.477Z,46.60
2022-12-12T17:08:19.596Z,38.72
2022-12-12T17:11:10.442Z,37.70
2022-12-12T17:13:49.961Z,42.85
2022-12-12T17:16:34.787Z,43.60
2022-12-12T17:23:34.839Z,34.53
2022-12-12T17:26:24.483Z,41.78
2022-12-12T17:29:29.319Z,36.55
2022-12-12T17:32:22.904Z,37.10
2022-12-12T17:34:56.938Z,45.95
2022-12-12T17:37:53.658Z,41.85
2022-12-12T17:40:26.170Z,33.63
2022-12-12T17:43:08.394Z,35.45
2022-12-12T17:46:24.265Z,42.83
2022-12-12T17:49:04.780Z,35.67
2022-12-12T17:51:38.561Z,38.20
2022-12-12T17:54:33.322Z,39.70
2022-12-12T17:57:33.031Z,44.07
2022-12-12T18:00:35.602Z,39.80
2022-12-12T18:03:06.533Z,37.97
2022-12-12T18:05:36.197Z,41.47
2022-12-12T18:08:16.393Z,39.70
2022-12-12T18:10:44.932Z,40.72
2022-12-12T18:13:38.931Z,38.03
2022-12-12T18:16:13.986Z,41.85
2022-12-12T18:18:45.652Z,41.90
2022-12-12T18:22:00.470Z,36.72
2022-12-12T18:24:29.907Z,39.40
2022-12-12T18:27:00.097Z,35.55
2022-12-12T18:29:28.406Z,37.85
2022-12-12T18:31:55.648Z,39.63
2022-12-12T18:34:23.004Z,44.15
2022-12-12T18:36:50.501Z,40.92
2022-12-12T18:39:18.690Z,35.97
2022-12-12T18:41:49.604Z,36.88
2022-12-12T18:44:17.565Z,39.90
2022-12-12T18:46:44.551Z,40.42
2022-12-12T18:49:15.565Z,43.45
2022-12-12T18:51:47.321Z,41.00
2022-12-12T18:54:16.699Z,41.80
2022-12-12T18:56:46.169Z,43.33
2022-12-12T18:59:19.303Z,45.30
2022-12-12T19:01:48.048Z,42.55
2022-12-12T19:04:22.431Z,48.72
2022-12-12T19:06:51.851Z,46.95
2022-12-12T19:09:20.955Z,42.63
2022-12-12T19:11:50.668Z,44.00
2022-12-12T19:14:18.669Z,47.80
2022-12-12T19:16:46.699Z,44.72
2022-12-12T19:19:15.055Z,44.97
2022-12-12T19:21:45.004Z,40.38
2022-12-12T19:24:12.826Z,43.35
2022-12-12T19:26:44.265Z,38.78
2022-12-12T19:29:15.387Z,41.50
2022-12-12T19:31:43.373Z,47.30
2022-12-12T19:34:13.880Z,47.30
2022-12-12T19:36:41.098Z,48.45
2022-12-12T19:39:08.907Z,46.67
2022-12-12T19:41:36.529Z,47.92
2022-12-12T19:44:05.843Z,47.70
2022-12-12T19:46:33.583Z,39.72
2022-12-12T19:49:08.739Z,39.92
2022-12-12T19:56:12.764Z,41.78
2022-12-12T19:59:05.088Z,49.78
2022-12-12T20:01:36.026Z,51.30
2022-12-12T20:04:08.052Z,52.20
2022-12-12T20:06:45.692Z,47.78
2022-12-12T20:09:24.239Z,49.35
2022-12-12T20:11:51.254Z,47.63
2022-12-12T20:14:21.194Z,42.47
2022-12-12T20:16:50.262Z,49.28
2022-12-12T20:19:18.719Z,40.83
2022-12-12T20:22:03.859Z,49.83
2022-12-12T20:24:33.651Z,43.83
2022-12-12T20:27:04.884Z,43.15
2022-12-12T20:29:36.059Z,44.83
2022-12-12T20:32:11.260Z,38.83
2022-12-12T20:34:42.213Z,43.22
2022-12-12T20:37:13.011Z,43.78
2022-12-12T20:42:44.670Z,45.28
2022-12-12T20:45:17.065Z,48.33
2022-12-12T20:47:46.804Z,46.75
2022-12-12T20:50:15.426Z,48.80
2022-12-12T20:52:46.180Z,45.88
2022-12-12T20:55:14.280Z,53.42
2022-12-12T20:57:41.869Z,50.33
2022-12-12T21:00:10.537Z,50.92
2022-12-12T21:02:40.328Z,45.58
2022-12-12T21:05:11.660Z,46.90
2022-12-12T21:07:46.871Z,53.22
2022-12-12T21:10:16.573Z,42.40
2022-12-12T21:12:51.594Z,47.78
2022-12-12T21:15:22.520Z,48.30
2022-12-12T21:17:50.576Z,43.33
2022-12-12T21:24:49.992Z,46.00
2022-12-12T21:27:21.229Z,49.72
2022-12-12T21:29:53.896Z,48.67
2022-12-12T21:34:49.784Z,43.00
2022-12-12T21:37:18.255Z,44.70
2022-12-12T21:39:50.981Z,44.03
2022-12-12T21:42:18.869Z,53.63
2022-12-12T21:44:47.891Z,45.22
2022-12-12T21:47:15.795Z,42.67
2022-12-12T21:49:44.241Z,42.83
2022-12-12T21:52:13.951Z,40.55
2022-12-12T21:54:41.052Z,42.85
2022-12-12T21:57:10.572Z,40.00
2022-12-12T21:59:38.528Z,40.75
2022-12-12T22:02:07.568Z,46.05
2022-12-12T22:04:34.619Z,41.47
2022-12-12T22:07:03.051Z,42.03
2022-12-12T22:09:31.036Z,43.28
2022-12-12T22:12:04.051Z,42.97
2022-12-12T22:14:43.051Z,38.50
2022-12-12T22:17:18.054Z,45.75
2022-12-12T22:19:48.655Z,41.78
2022-12-12T22:22:22.269Z,40.60
2022-12-12T22:24:50.442Z,42.22
2022-12-12T22:27:19.334Z,38.85
2022-12-12T22:29:46.271Z,41.95
2022-12-12T22:32:14.461Z,39.42
2022-12-12T22:34:42.573Z,41.58
2022-12-12T22:37:11.504Z,39.65
2022-12-12T22:39:39.540Z,39.08
2022-12-12T22:42:07.499Z,39.60
2022-12-12T22:44:34.369Z,38.38
2022-12-12T22:47:03.421Z,42.50
2022-12-12T22:49:30.480Z,39.78
2022-12-12T22:51:58.224Z,45.22
2022-12-12T22:54:26.591Z,41.92
2022-12-12T22:56:53.850Z,42.72
2022-12-12T22:59:22.480Z,42.80
2022-12-12T23:01:50.360Z,41.10
2022-12-12T23:04:18.334Z,38.97
2022-12-12T23:06:46.380Z,40.05
2022-12-12T23:09:20.568Z,45.95
2022-12-12T23:11:49.343Z,38.03
2022-12-12T23:14:20.554Z,37.15
2022-12-12T23:19:26.624Z,35.50
2022-12-12T23:21:57.642Z,42.80
2022-12-12T23:24:31.835Z,36.80
2022-12-12T23:27:12.138Z,36.70
2022-12-12T23:29:46.181Z,34.78
2022-12-12T23:32:18.070Z,34.42
2022-12-12T23:34:55.275Z,40.28
2022-12-12T23:37:30.566Z,33.53
2022-12-12T23:40:05.341Z,32.47
2022-12-12T23:43:07.910Z,37.15
2022-12-12T23:51:12.877Z,36.55
2022-12-12T23:54:42.266Z,41.50
2022-12-12T23:57:10.262Z,32.42
2022-12-12T23:59:42.711Z,37.80
